Aviation Digital Data Service (ADDS)

Output produced by METARs form (2238 UTC 30 March 2017)
found at http://www.aviationweather.gov/adds/metars/
 
UATE 302230Z 10003MPS CAVOK 03/03 Q1016 R12/0///70 NOSIG RMK QFE760/1013
TAF UATE 301700Z 3018/3118 18008MPS CAVOK TX10/3109Z TN04/3102Z 
     BECMG 3022/3024 VRB02MPS 
     BECMG 3101/3103 34010MPS 9999 SCT015CB
       
UATT 302230Z 05005MPS 2200 SHSN OVC011CB M03/M04 Q1002 R13/593035 NOSIG RMK QFE732/0977
TAF UATT 301700Z 3018/3118 36005MPS 3000 SHSN BR BKN005 BKN010CB TXM02/3112Z TNM08/3118Z 
     TEMPO 3018/3106 34012MPS 0500 +SHSN BLSN VV002 
     FM310600 30005MPS 3000 -SN BR SCT005 BKN010 
     TEMPO 3106/3110 32010MPS
       
UAAA 302230Z 14002MPS 100V170 9999 BKN033CB OVC100 07/05 Q1029 R88/2/0150 NOSIG
TAF UAAA 301700Z 3018/3118 34005MPS 3000 BR BKN010CB OVC100 TX16/3108Z TN02/3101Z 
     TEMPO 3018/3104 1200 -SHRA BKN006 OVC010CB 
     BECMG 3106/3107 04005MPS 5000 BR FU BKN020CB BKN100 
     TEMPO 3114/3118 16005MPS 1500
       
UAAA 302230Z 14002MPS 100V170 9999 BKN033CB OVC100 07/05 Q1029 R88/2/0150 NOSIG
TAF UAAA 301700Z 3018/3118 34005MPS 3000 BR BKN010CB OVC100 TX16/3108Z TN02/3101Z 
     TEMPO 3018/3104 1200 -SHRA BKN006 OVC010CB 
     BECMG 3106/3107 04005MPS 5000 BR FU BKN020CB BKN100 
     TEMPO 3114/3118 16005MPS 1500
       
UACC 302230Z 23012MPS 9000 OVC021 M04/M08 Q1019 R22/0///70 NOSIG RMK QFE733/0977
TAF UACC 301700Z 3018/3118 23014MPS 9999 BKN010 BKN100 TX05/3109Z TNM06/3101Z 
     TEMPO 3018/3102 24013G18MPS 
     FM310200 21015MPS 9999 BKN007 BKN030 
     TEMPO 3102/3106 21013G18MPS 1500 FZRASN SCT004 BKN007 
     TEMPO 3106/3112 21015G20MPS 3000 SHRA BKN007CB
       
UADD 302230Z 00000MPS 9999 BKN050CB OVC100 03/M01 Q1026 NOSIG RMK QFE712/0950
TAF UADD 302000Z 3021/3106 32005G10MPS 9999 SCT040CB BKN100
       
UAII 302230Z 11002MPS CAVOK 05/01 Q1024 R28/0///70 NOSIG RMK QFE730/0974
TAF UAII 301700Z 3018/3118 06005MPS 6000 BKN040 BKN100 TX16/3109Z TN05/3101Z 
     TEMPO 3018/3103 33007MPS 1500 BR 
     TEMPO 3103/3112 28005G10MPS
       
UAKK 302230Z 23009MPS CAVOK M03/M07 Q1022 R23/950550 NOSIG RMK QFE720/0960
TAF UAKK 301700Z 3018/3118 24016MPS 9999 SCT010 BKN030 TX04/3109Z TNM05/3101Z 
     TEMPO 3018/3103 24017G23MPS 4000 SHSN SCT005 BKN010CB 
     BECMG 3106/3108 20015G20MPS
       
UAOO 302230Z 14003MPS CAVOK M02/M08 Q1026 R23/CLRD70 NOSIG RMK QFE757/1010
TAF UAOO 302000Z 3021/3106 19004MPS CAVOK 
     TEMPO 3021/3103 16003MPS 
     TEMPO 3103/3106 24006MPS
       
UARR 302200Z 30004MPS CAVOK M04/M05 Q1013 R22/790332 TEMPO 2000 BR RMK QFE756/1009
TAF UARR 302004Z 3021/3106 31005MPS 3000 -SN BR BKN010 
     TEMPO 3021/3103 0500 FZFG VV003
       
UASK 302230Z 19004MPS 9999 NSC 00/M07 Q1031 R12/090060 NOSIG RMK QFE747/0996
TAF UASK 302003Z 3021/3106 17005MPS 5000 BR SCT030 SCT100 
     TEMPO 3021/3103 0200 FZFG VV002
       
UASP 302230Z 24013MPS CAVOK M01/M06 Q1018 R21/0///60 NOSIG RMK QFE752/1003
TAF UASP 302000Z 3021/3106 22020MPS 9999 SCT006 BKN011CB 
     TEMPO 3021/3101 23027MPS 2100 -SHRASN SCT004 
     TEMPO 3101/3106 24015MPS 2100 -SHSNRA SCT004
       
UATE 302230Z 10003MPS CAVOK 03/03 Q1016 R12/0///70 NOSIG RMK QFE760/1013
TAF UATE 301700Z 3018/3118 18008MPS CAVOK TX10/3109Z TN04/3102Z 
     BECMG 3022/3024 VRB02MPS 
     BECMG 3101/3103 34010MPS 9999 SCT015CB
       
UATG 302230Z 29009G14MPS 5000 BR BKN017CB 05/02 Q1012 R14/19//65 NOSIG RMK QFE761/1014
TAF UATG 301700Z 3018/3118 23013G18MPS 9999 SCT010 BKN020CB TX05/3111Z TNM01/3103Z 
     TEMPO 3018/3024 -SHRA 
     BECMG 3100/3102 31010MPS 3000 BR
       
UATT 302230Z 05005MPS 2200 SHSN OVC011CB M03/M04 Q1002 R13/593035 NOSIG RMK QFE732/0977
TAF UATT 301700Z 3018/3118 36005MPS 3000 SHSN BR BKN005 BKN010CB TXM02/3112Z TNM08/3118Z 
     TEMPO 3018/3106 34012MPS 0500 +SHSN BLSN VV002 
     FM310600 30005MPS 3000 -SN BR SCT005 BKN010 
     TEMPO 3106/3110 32010MPS
       
UAUU 302230Z 24006MPS CAVOK M05/M08 Q1010 R33/CLRD60 NOSIG RMK QFE742/0990
TAF UAUU 302000Z 3021/3106 22005MPS 6000 SCT006 BKN010CB 
     TEMPO 3021/3105 23011MPS 2000 -SHSNRA BR 
     TEMPO 3105/3106 2000 -SHSNRA BR
       
UACC 302230Z 23012MPS 9000 OVC021 M04/M08 Q1019 R22/0///70 NOSIG RMK QFE733/0977
TAF UACC 301700Z 3018/3118 23014MPS 9999 BKN010 BKN100 TX05/3109Z TNM06/3101Z 
     TEMPO 3018/3102 24013G18MPS 
     FM310200 21015MPS 9999 BKN007 BKN030 
     TEMPO 3102/3106 21013G18MPS 1500 FZRASN SCT004 BKN007 
     TEMPO 3106/3112 21015G20MPS 3000 SHRA BKN007CB
       
UATG 302230Z 29009G14MPS 5000 BR BKN017CB 05/02 Q1012 R14/19//65 NOSIG RMK QFE761/1014
TAF UATG 301700Z 3018/3118 23013G18MPS 9999 SCT010 BKN020CB TX05/3111Z TNM01/3103Z 
     TEMPO 3018/3024 -SHRA 
     BECMG 3100/3102 31010MPS 3000 BR
       
UAKK 302230Z 23009MPS CAVOK M03/M07 Q1022 R23/950550 NOSIG RMK QFE720/0960
TAF UAKK 301700Z 3018/3118 24016MPS 9999 SCT010 BKN030 TX04/3109Z TNM05/3101Z 
     TEMPO 3018/3103 24017G23MPS 4000 SHSN SCT005 BKN010CB 
     BECMG 3106/3108 20015G20MPS
       
UAUU 302230Z 24006MPS CAVOK M05/M08 Q1010 R33/CLRD60 NOSIG RMK QFE742/0990
TAF UAUU 302000Z 3021/3106 22005MPS 6000 SCT006 BKN010CB 
     TEMPO 3021/3105 23011MPS 2000 -SHSNRA BR 
     TEMPO 3105/3106 2000 -SHSNRA BR
       
UAII 302230Z 11002MPS CAVOK 05/01 Q1024 R28/0///70 NOSIG RMK QFE730/0974
TAF UAII 301700Z 3018/3118 06005MPS 6000 BKN040 BKN100 TX16/3109Z TN05/3101Z 
     TEMPO 3018/3103 33007MPS 1500 BR 
     TEMPO 3103/3112 28005G10MPS
       
UARR 302200Z 30004MPS CAVOK M04/M05 Q1013 R22/790332 TEMPO 2000 BR RMK QFE756/1009
TAF UARR 302004Z 3021/3106 31005MPS 3000 -SN BR BKN010 
     TEMPO 3021/3103 0500 FZFG VV003
       
UASK 302230Z 19004MPS 9999 NSC 00/M07 Q1031 R12/090060 NOSIG RMK QFE747/0996
TAF UASK 302003Z 3021/3106 17005MPS 5000 BR SCT030 SCT100 
     TEMPO 3021/3103 0200 FZFG VV002